createdAt,value
2018-06-18T00:00:04.096Z,20.02
2018-06-18T00:00:44.675Z,20.04
2018-06-18T00:01:25.227Z,19.96
2018-06-18T00:02:05.794Z,19.99
2018-06-18T00:02:46.350Z,19.95
2018-06-18T00:03:26.946Z,19.96
2018-06-18T00:04:07.545Z,20.03
2018-06-18T00:04:48.181Z,20.02
2018-06-18T00:05:28.734Z,19.94
2018-06-18T00:06:09.344Z,20.03
2018-06-18T00:06:49.903Z,19.96
2018-06-18T00:07:30.463Z,19.91
2018-06-18T00:08:11.025Z,19.86
2018-06-18T00:08:51.614Z,19.92
2018-06-18T00:09:32.213Z,19.89
2018-06-18T00:10:12.744Z,19.89
2018-06-18T00:10:53.288Z,19.96
2018-06-18T00:11:33.846Z,19.94
2018-06-18T00:12:14.409Z,19.94
2018-06-18T00:12:54.982Z,19.86
2018-06-18T00:13:35.568Z,19.96
2018-06-18T00:14:16.124Z,19.91
2018-06-18T00:14:56.698Z,19.92
2018-06-18T00:15:37.249Z,19.86
2018-06-18T00:16:17.925Z,19.85
2018-06-18T00:16:58.510Z,19.91
2018-06-18T00:17:39.082Z,19.89
2018-06-18T00:18:19.642Z,19.86
2018-06-18T00:19:00.205Z,19.88
2018-06-18T00:19:40.760Z,19.86
2018-06-18T00:20:21.323Z,19.92
2018-06-18T00:21:01.884Z,19.92
2018-06-18T00:21:42.437Z,19.94
2018-06-18T00:22:23.020Z,19.94
2018-06-18T00:23:03.588Z,19.84
2018-06-18T00:23:44.138Z,19.91
2018-06-18T00:24:24.712Z,19.91
2018-06-18T00:25:05.255Z,19.91
2018-06-18T00:25:45.812Z,19.91
2018-06-18T00:26:26.374Z,19.89
2018-06-18T00:27:06.931Z,19.88
2018-06-18T00:27:47.477Z,19.88
2018-06-18T00:28:28.057Z,19.81
2018-06-18T00:29:08.631Z,19.74
2018-06-18T00:29:49.196Z,19.7
2018-06-18T00:30:29.776Z,19.73
2018-06-18T00:31:10.350Z,19.77
2018-06-18T00:31:50.947Z,19.84
2018-06-18T00:32:31.501Z,19.76
2018-06-18T00:33:12.060Z,19.81
2018-06-18T00:33:52.613Z,19.69
2018-06-18T00:34:33.151Z,19.74
2018-06-18T00:35:13.702Z,19.64
2018-06-18T00:35:54.375Z,19.71
2018-06-18T00:36:34.929Z,19.67
2018-06-18T00:37:15.495Z,19.63
2018-06-18T00:37:56.047Z,19.69
2018-06-18T00:38:36.605Z,19.66
2018-06-18T00:39:17.156Z,19.67
2018-06-18T00:39:57.707Z,19.66
2018-06-18T00:40:38.287Z,19.67
2018-06-18T00:41:18.858Z,19.66
2018-06-18T00:41:59.421Z,19.58
2018-06-18T00:42:39.994Z,19.66
2018-06-18T00:43:20.545Z,19.55
2018-06-18T00:44:01.125Z,19.59
2018-06-18T00:44:41.708Z,19.56
2018-06-18T00:45:22.266Z,19.54
2018-06-18T00:46:02.860Z,19.59
2018-06-18T00:46:43.414Z,19.55
2018-06-18T00:47:23.972Z,19.52
2018-06-18T00:48:04.543Z,19.58
2018-06-18T00:48:45.130Z,19.55
2018-06-18T00:49:25.728Z,19.63
2018-06-18T00:50:06.266Z,19.66
2018-06-18T00:50:46.819Z,19.64
2018-06-18T00:51:27.542Z,19.58
2018-06-18T00:52:08.086Z,19.62
2018-06-18T00:52:48.635Z,19.54
2018-06-18T00:53:29.187Z,19.59
2018-06-18T00:54:09.764Z,19.59
2018-06-18T00:54:50.407Z,19.58
2018-06-18T00:55:30.967Z,19.66
2018-06-18T00:56:11.530Z,19.59
2018-06-18T00:56:52.093Z,19.55
2018-06-18T00:57:32.668Z,19.55
2018-06-18T00:58:13.235Z,19.55
2018-06-18T00:58:53.790Z,19.51
2018-06-18T00:59:34.363Z,19.45
2018-06-18T01:00:14.929Z,19.51
2018-06-18T01:00:55.521Z,19.54
2018-06-18T01:01:36.115Z,19.51
2018-06-18T01:02:16.719Z,19.47
2018-06-18T01:02:57.308Z,19.49
2018-06-18T01:03:37.855Z,19.51
2018-06-18T01:04:18.592Z,19.47
2018-06-18T01:04:59.186Z,19.45
2018-06-18T01:05:39.848Z,19.41
2018-06-18T01:06:20.694Z,19.49
2018-06-18T01:07:01.457Z,19.48
2018-06-18T01:07:42.035Z,19.47
2018-06-18T01:08:22.605Z,19.44
2018-06-18T01:09:03.472Z,19.4
2018-06-18T01:09:44.186Z,19.4
2018-06-18T01:10:24.973Z,19.51
2018-06-18T01:11:05.579Z,19.37
2018-06-18T01:11:46.152Z,19.47
2018-06-18T01:12:26.737Z,19.41
2018-06-18T01:13:08.377Z,19.36
2018-06-18T01:13:50.240Z,19.34
2018-06-18T01:14:30.798Z,19.47
2018-06-18T01:15:11.543Z,19.39
2018-06-18T01:15:52.192Z,19.4
2018-06-18T01:16:32.770Z,19.41
2018-06-18T01:17:13.339Z,19.47
2018-06-18T01:17:53.916Z,19.45
2018-06-18T01:18:35.423Z,19.37
2018-06-18T01:19:15.983Z,19.41
2018-06-18T01:19:56.573Z,19.34
2018-06-18T01:20:37.153Z,19.39
2018-06-18T01:21:17.730Z,19.34
2018-06-18T01:21:58.352Z,19.31
2018-06-18T01:22:38.950Z,19.27
2018-06-18T01:23:19.714Z,19.36
2018-06-18T01:24:00.467Z,19.27
2018-06-18T01:24:41.213Z,19.3
2018-06-18T01:25:21.880Z,19.3
2018-06-18T01:26:02.767Z,19.26
2018-06-18T01:26:45.125Z,19.24
2018-06-18T01:27:25.692Z,19.19
2018-06-18T01:28:06.273Z,19.16
2018-06-18T01:28:47.065Z,19.19
2018-06-18T01:29:27.722Z,19.22
2018-06-18T01:30:08.295Z,19.15
2018-06-18T01:30:48.882Z,19.14
2018-06-18T01:31:29.489Z,19.15
2018-06-18T01:32:10.108Z,19.16
2018-06-18T01:32:50.666Z,19.04
2018-06-18T01:33:31.966Z,19.04
2018-06-18T01:34:12.590Z,19.04
2018-06-18T01:34:53.149Z,19.07
2018-06-18T01:35:33.708Z,19.04
2018-06-18T01:36:14.274Z,19.07
2018-06-18T01:36:54.868Z,19
2018-06-18T01:37:35.442Z,19.07
2018-06-18T01:38:15.981Z,18.9
2018-06-18T01:38:56.544Z,19
2018-06-18T01:39:37.104Z,19.04
2018-06-18T01:40:17.687Z,19.02
2018-06-18T01:40:58.292Z,19.02
2018-06-18T01:41:39.090Z,19
2018-06-18T01:42:19.837Z,19
2018-06-18T01:43:00.689Z,18.93
2018-06-18T01:43:41.352Z,18.89
2018-06-18T01:44:22.707Z,19.02
2018-06-18T01:45:03.245Z,18.9
2018-06-18T01:45:44.004Z,18.98
2018-06-18T01:46:24.547Z,18.93
2018-06-18T01:47:05.233Z,18.9
2018-06-18T01:47:45.926Z,18.92
2018-06-18T01:48:27.163Z,18.98
2018-06-18T01:49:07.805Z,19.07
2018-06-18T01:49:49.196Z,18.96
2018-06-18T01:50:31.042Z,19
2018-06-18T01:51:11.869Z,18.99
2018-06-18T01:51:52.464Z,19.02
2018-06-18T01:52:34.436Z,18.9
2018-06-18T01:53:15.109Z,18.88
2018-06-18T01:53:55.610Z,18.88
2018-06-18T01:54:36.264Z,18.89
2018-06-18T01:55:16.807Z,18.92
2018-06-18T01:55:57.387Z,18.81
2018-06-18T01:56:38.562Z,18.83
2018-06-18T01:57:20.715Z,18.84
2018-06-18T01:58:01.297Z,18.92
2018-06-18T01:58:42.020Z,18.8
2018-06-18T01:59:22.618Z,18.89
2018-06-18T02:00:03.248Z,18.8
2018-06-18T02:00:43.840Z,18.8
2018-06-18T02:01:24.439Z,18.8
2018-06-18T02:02:05.005Z,18.88
2018-06-18T02:02:45.722Z,18.84
2018-06-18T02:03:26.310Z,18.84
2018-06-18T02:04:06.973Z,18.9
2018-06-18T02:04:47.588Z,18.89
2018-06-18T02:05:28.206Z,18.81
2018-06-18T02:06:08.920Z,18.9
2018-06-18T02:06:50.523Z,18.84
2018-06-18T02:07:31.117Z,18.9
2018-06-18T02:08:11.674Z,18.78
2018-06-18T02:08:52.998Z,18.8
2018-06-18T02:09:33.735Z,18.86
2018-06-18T02:10:14.398Z,18.77
2018-06-18T02:10:55.061Z,18.75
2018-06-18T02:11:35.646Z,18.74
2018-06-18T02:12:16.329Z,18.74
2018-06-18T02:12:56.936Z,18.77
2018-06-18T02:13:37.543Z,18.77
2018-06-18T02:14:18.205Z,18.78
2018-06-18T02:14:58.837Z,18.68
2018-06-18T02:15:39.465Z,18.74
2018-06-18T02:16:20.095Z,18.75
2018-06-18T02:17:00.786Z,18.78
2018-06-18T02:17:41.393Z,18.73
2018-06-18T02:18:22.162Z,18.74
2018-06-18T02:19:02.767Z,18.78
2018-06-18T02:19:43.444Z,18.74
2018-06-18T02:20:24.222Z,18.66
2018-06-18T02:21:04.831Z,18.71
2018-06-18T02:21:45.361Z,18.77
2018-06-18T02:22:25.916Z,18.66
2018-06-18T02:23:06.470Z,18.7
2018-06-18T02:23:47.022Z,18.7
2018-06-18T02:24:27.584Z,18.75
2018-06-18T02:25:08.123Z,18.7
2018-06-18T02:25:48.700Z,18.74
2018-06-18T02:26:29.263Z,18.75
2018-06-18T02:27:09.841Z,18.68
2018-06-18T02:27:50.399Z,18.75
2018-06-18T02:28:30.986Z,18.68
2018-06-18T02:29:11.559Z,18.66
2018-06-18T02:29:52.186Z,18.66
2018-06-18T02:30:32.717Z,18.55
2018-06-18T02:31:13.263Z,18.63
2018-06-18T02:31:53.828Z,18.63
2018-06-18T02:32:34.400Z,18.56
2018-06-18T02:33:14.977Z,18.53
2018-06-18T02:33:55.532Z,18.47
2018-06-18T02:34:36.104Z,18.47
2018-06-18T02:35:16.656Z,18.5
2018-06-18T02:35:57.235Z,18.47
2018-06-18T02:36:37.837Z,18.41
2018-06-18T02:37:18.511Z,18.37
2018-06-18T02:37:59.083Z,18.44
2018-06-18T02:38:39.640Z,18.41
2018-06-18T02:39:20.188Z,18.55
2018-06-18T02:40:00.750Z,18.38
2018-06-18T02:40:41.344Z,18.44
2018-06-18T02:41:21.920Z,18.44
2018-06-18T02:42:02.456Z,18.43
2018-06-18T02:42:43.031Z,18.45
2018-06-18T02:43:23.595Z,18.47
2018-06-18T02:44:04.162Z,18.45
2018-06-18T02:44:44.720Z,18.41
2018-06-18T02:45:25.442Z,18.38
2018-06-18T02:46:06.250Z,18.44
2018-06-18T02:46:47.091Z,18.35
2018-06-18T02:47:27.735Z,18.34
2018-06-18T02:48:08.352Z,18.38
2018-06-18T02:48:49.069Z,18.45
2018-06-18T02:49:29.806Z,18.43
2018-06-18T02:50:10.500Z,18.41
2018-06-18T02:50:51.844Z,18.37
2018-06-18T02:51:35.653Z,18.33
2018-06-18T02:52:16.283Z,18.33
2018-06-18T02:52:56.873Z,18.35
2018-06-18T02:53:37.668Z,18.34
2018-06-18T02:54:18.215Z,18.38
2018-06-18T02:54:59.519Z,18.35
2018-06-18T02:55:41.340Z,18.37
2018-06-18T02:56:21.939Z,18.4
2018-06-18T02:57:02.539Z,18.33
2018-06-18T02:57:43.177Z,18.28
2018-06-18T02:58:23.733Z,18.35
2018-06-18T02:59:04.272Z,18.4
2018-06-18T02:59:44.835Z,18.45
2018-06-18T03:00:25.402Z,18.43
2018-06-18T03:01:05.971Z,18.45
2018-06-18T03:01:46.553Z,18.41
2018-06-18T03:02:27.101Z,18.38
2018-06-18T03:03:07.654Z,18.45
2018-06-18T03:03:48.204Z,18.44
2018-06-18T03:04:28.768Z,18.45
2018-06-18T03:05:09.313Z,18.37
2018-06-18T03:05:49.870Z,18.45
2018-06-18T03:06:30.423Z,18.44
2018-06-18T03:07:10.980Z,18.33
2018-06-18T03:07:51.507Z,18.4
2018-06-18T03:08:32.496Z,18.44
2018-06-18T03:09:13.073Z,18.43
2018-06-18T03:09:53.606Z,18.43
2018-06-18T03:10:34.176Z,18.38
2018-06-18T03:11:14.734Z,18.37
2018-06-18T03:11:55.296Z,18.38
2018-06-18T03:12:35.932Z,18.49
2018-06-18T03:13:16.503Z,18.43
2018-06-18T03:13:57.053Z,18.31
2018-06-18T03:14:37.615Z,18.33
2018-06-18T03:15:18.176Z,18.31
2018-06-18T03:15:58.729Z,18.33
2018-06-18T03:16:39.283Z,18.33
2018-06-18T03:17:19.830Z,18.37
2018-06-18T03:18:00.390Z,18.33
2018-06-18T03:18:40.956Z,18.43
2018-06-18T03:19:21.541Z,18.45
2018-06-18T03:20:02.146Z,18.28
2018-06-18T03:20:42.704Z,18.44
2018-06-18T03:21:23.258Z,18.44
2018-06-18T03:22:03.817Z,18.43
2018-06-18T03:22:44.389Z,18.41
2018-06-18T03:23:24.962Z,18.41
2018-06-18T03:24:05.585Z,18.33
2018-06-18T03:24:46.095Z,18.41
2018-06-18T03:25:26.651Z,18.4
2018-06-18T03:26:07.215Z,18.43
2018-06-18T03:26:47.785Z,18.43
2018-06-18T03:27:28.343Z,18.47
2018-06-18T03:28:08.903Z,18.47
2018-06-18T03:28:49.474Z,18.43
2018-06-18T03:29:30.034Z,18.45
2018-06-18T03:30:10.619Z,18.45
2018-06-18T03:30:51.199Z,18.41
2018-06-18T03:31:31.748Z,18.45
2018-06-18T03:32:12.305Z,18.43
2018-06-18T03:32:52.895Z,18.41
2018-06-18T03:33:33.448Z,18.43
2018-06-18T03:34:14.054Z,18.49
2018-06-18T03:34:54.608Z,18.5
2018-06-18T03:35:35.201Z,18.49
2018-06-18T03:36:15.768Z,18.4
2018-06-18T03:36:56.335Z,18.52
2018-06-18T03:37:37.239Z,18.5
2018-06-18T03:38:17.794Z,18.49
2018-06-18T03:38:58.354Z,18.4
2018-06-18T03:39:38.906Z,18.45
2018-06-18T03:40:19.467Z,18.52
2018-06-18T03:41:00.028Z,18.43
2018-06-18T03:41:40.567Z,18.47
2018-06-18T03:42:21.125Z,18.41
2018-06-18T03:43:01.693Z,18.44
2018-06-18T03:43:42.253Z,18.44
2018-06-18T03:44:22.811Z,18.52
2018-06-18T03:45:03.442Z,18.4
2018-06-18T03:45:44.001Z,18.41
2018-06-18T03:46:24.556Z,18.43
2018-06-18T03:47:05.112Z,18.47
2018-06-18T03:47:45.696Z,18.5
2018-06-18T03:48:26.259Z,18.45
2018-06-18T03:49:06.826Z,18.56
2018-06-18T03:49:47.379Z,18.47
2018-06-18T03:50:27.952Z,18.53
2018-06-18T03:51:08.516Z,18.47
2018-06-18T03:51:49.116Z,18.5
2018-06-18T03:52:29.681Z,18.45
2018-06-18T03:53:10.262Z,18.47
2018-06-18T03:53:50.828Z,18.49
2018-06-18T03:54:31.398Z,18.56
2018-06-18T03:55:11.958Z,18.43
2018-06-18T03:55:52.519Z,18.41
2018-06-18T03:56:33.078Z,18.45
2018-06-18T03:57:13.853Z,18.47
2018-06-18T03:57:54.416Z,18.55
2018-06-18T03:58:34.973Z,18.44
2018-06-18T03:59:15.538Z,18.44
2018-06-18T03:59:56.100Z,18.49
2018-06-18T04:00:36.680Z,18.47
2018-06-18T04:01:17.235Z,18.47
2018-06-18T04:01:57.798Z,18.55
2018-06-18T04:02:38.361Z,18.55
2018-06-18T04:03:18.931Z,18.53
2018-06-18T04:03:59.590Z,18.49
2018-06-18T04:04:40.069Z,18.49
2018-06-18T04:05:20.763Z,18.56
2018-06-18T04:06:01.203Z,18.53
2018-06-18T04:06:41.806Z,18.59
2018-06-18T04:07:22.371Z,18.49
2018-06-18T04:08:02.946Z,18.56
2018-06-18T04:08:43.524Z,18.52
2018-06-18T04:09:24.070Z,18.55
2018-06-18T04:10:04.633Z,18.55
2018-06-18T04:10:45.186Z,18.58
2018-06-18T04:11:25.737Z,18.71
2018-06-18T04:12:06.301Z,18.84
2018-06-18T04:12:46.864Z,18.75
2018-06-18T04:13:27.417Z,18.88
2018-06-18T04:14:07.963Z,18.95
2018-06-18T04:14:48.516Z,19.07
2018-06-18T04:15:29.088Z,19.11
2018-06-18T04:16:09.660Z,19.12
2018-06-18T04:16:50.245Z,19.29
2018-06-18T04:17:30.800Z,19.33
2018-06-18T04:18:11.399Z,19.39
2018-06-18T04:18:52.020Z,19.33
2018-06-18T04:19:32.609Z,19.48
2018-06-18T04:20:13.180Z,19.52
2018-06-18T04:20:53.759Z,19.54
2018-06-18T04:21:34.318Z,19.56
2018-06-18T04:22:14.900Z,19.63
2018-06-18T04:22:55.469Z,19.64
2018-06-18T04:23:36.070Z,19.71
2018-06-18T04:24:16.781Z,19.7
2018-06-18T04:24:57.331Z,19.69
2018-06-18T04:25:37.897Z,19.69
2018-06-18T04:26:18.494Z,19.82
2018-06-18T04:26:59.015Z,19.76
2018-06-18T04:27:39.583Z,19.76
2018-06-18T04:28:20.166Z,19.89
2018-06-18T04:29:00.724Z,19.95
2018-06-18T04:29:41.617Z,19.86
2018-06-18T04:30:22.272Z,19.86
2018-06-18T04:31:03.194Z,19.88
2018-06-18T04:31:43.823Z,19.99
2018-06-18T04:32:24.706Z,19.95
2018-06-18T04:33:05.365Z,19.95
2018-06-18T04:33:46.021Z,20.06
2018-06-18T04:34:26.785Z,19.95
2018-06-18T04:35:07.509Z,19.95
2018-06-18T04:35:48.255Z,20.07
2018-06-18T04:36:28.834Z,20.04
2018-06-18T04:37:09.424Z,20.03
2018-06-18T04:37:50.097Z,20.07
2018-06-18T04:38:30.539Z,20.14
2018-06-18T04:39:11.163Z,20.11
2018-06-18T04:39:52.174Z,20.14
2018-06-18T04:40:32.849Z,20.21
2018-06-18T04:41:13.396Z,20.22
2018-06-18T04:41:53.973Z,20.16
2018-06-18T04:42:34.541Z,20.26
2018-06-18T04:43:15.132Z,20.31
2018-06-18T04:43:55.873Z,20.39
2018-06-18T04:44:36.440Z,20.29
2018-06-18T04:45:16.992Z,20.37
2018-06-18T04:45:57.561Z,20.4
2018-06-18T04:46:38.151Z,20.39
2018-06-18T04:47:18.751Z,20.43
2018-06-18T04:47:59.329Z,20.34
2018-06-18T04:48:39.992Z,20.43
2018-06-18T04:49:20.547Z,20.43
2018-06-18T04:50:01.095Z,20.48
2018-06-18T04:50:41.679Z,20.44
2018-06-18T04:51:22.248Z,20.44
2018-06-18T04:52:02.849Z,20.4
2018-06-18T04:52:43.400Z,20.56
2018-06-18T04:53:24.129Z,20.59
2018-06-18T04:54:04.681Z,20.55
2018-06-18T04:54:45.742Z,20.6
2018-06-18T04:55:26.319Z,20.6
2018-06-18T04:56:06.927Z,20.69
2018-06-18T04:56:47.496Z,20.69
2018-06-18T04:57:28.057Z,20.67
2018-06-18T04:58:08.607Z,20.77
2018-06-18T04:58:49.216Z,20.72
2018-06-18T04:59:29.728Z,20.72
2018-06-18T05:00:10.336Z,20.75
2018-06-18T05:00:50.897Z,20.8
2018-06-18T05:01:31.457Z,20.74
2018-06-18T05:02:12.005Z,20.8
2018-06-18T05:02:52.572Z,20.77
2018-06-18T05:03:33.132Z,20.74
2018-06-18T05:04:13.698Z,20.72
2018-06-18T05:04:54.275Z,20.77
2018-06-18T05:05:34.834Z,20.8
2018-06-18T05:06:15.409Z,20.72
2018-06-18T05:06:55.959Z,20.69
2018-06-18T05:07:36.541Z,20.7
2018-06-18T05:08:17.090Z,20.67
2018-06-18T05:08:57.664Z,20.78
2018-06-18T05:09:38.244Z,20.74
2018-06-18T05:10:18.802Z,20.72
2018-06-18T05:10:59.349Z,20.74
2018-06-18T05:11:39.903Z,20.67
2018-06-18T05:12:20.471Z,20.63
2018-06-18T05:13:01.045Z,20.69
2018-06-18T05:13:41.599Z,20.72
2018-06-18T05:14:22.144Z,20.58
2018-06-18T05:15:02.721Z,20.63
2018-06-18T05:15:43.289Z,20.67
2018-06-18T05:16:23.845Z,20.59
2018-06-18T05:17:04.411Z,20.6
2018-06-18T05:17:45.002Z,20.63
2018-06-18T05:18:25.682Z,20.58
2018-06-18T05:19:06.250Z,20.63
2018-06-18T05:19:46.805Z,20.56
2018-06-18T05:20:27.428Z,20.59
2018-06-18T05:21:07.945Z,20.51
2018-06-18T05:21:48.526Z,20.56
2018-06-18T05:22:29.086Z,20.39
2018-06-18T05:23:09.654Z,20.55
2018-06-18T05:23:50.215Z,20.51
2018-06-18T05:24:30.789Z,20.41
2018-06-18T05:25:11.339Z,20.55
2018-06-18T05:25:51.900Z,20.41
2018-06-18T05:26:32.482Z,20.37
2018-06-18T05:27:13.118Z,20.4
2018-06-18T05:27:53.674Z,20.29
2018-06-18T05:28:34.252Z,20.29
2018-06-18T05:29:14.822Z,20.34
2018-06-18T05:29:55.372Z,20.31
2018-06-18T05:30:35.944Z,20.34
2018-06-18T05:31:16.498Z,20.29
2018-06-18T05:31:57.069Z,20.25
2018-06-18T05:32:37.626Z,20.29
2018-06-18T05:33:18.207Z,20.26
2018-06-18T05:33:58.758Z,20.24
2018-06-18T05:34:39.376Z,20.22
2018-06-18T05:35:20.036Z,20.29
2018-06-18T05:36:00.851Z,20.22
2018-06-18T05:36:41.407Z,20.29
2018-06-18T05:37:21.969Z,20.16
2018-06-18T05:38:02.682Z,20.22
2018-06-18T05:38:43.212Z,20.19
2018-06-18T05:39:23.765Z,20.13
2018-06-18T05:40:04.357Z,20.1
2018-06-18T05:40:44.916Z,20.19
2018-06-18T05:41:25.479Z,20.11
2018-06-18T05:42:06.036Z,20.22
2018-06-18T05:42:46.585Z,20.13
2018-06-18T05:43:27.164Z,20.21
2018-06-18T05:44:07.695Z,20.18
2018-06-18T05:44:48.274Z,20.14
2018-06-18T05:45:28.829Z,20.14
2018-06-18T05:46:09.419Z,20.14
2018-06-18T05:46:49.994Z,20.14
2018-06-18T05:47:30.558Z,20.18
2018-06-18T05:48:11.134Z,20.18
2018-06-18T05:48:51.702Z,20.21
2018-06-18T05:49:32.262Z,20.13
2018-06-18T05:50:12.814Z,20.16
2018-06-18T05:50:53.386Z,20.21
2018-06-18T05:51:33.947Z,20.14
2018-06-18T05:52:14.494Z,20.19
2018-06-18T05:52:55.055Z,20.18
2018-06-18T05:53:35.618Z,20.13
2018-06-18T05:54:16.206Z,20.24
2018-06-18T05:54:56.768Z,20.25
2018-06-18T05:55:37.329Z,20.1
2018-06-18T05:56:17.909Z,20.1
2018-06-18T05:56:58.481Z,20.14
2018-06-18T05:57:39.050Z,20.16
2018-06-18T05:58:19.641Z,20.18
2018-06-18T05:59:00.209Z,20.21
2018-06-18T05:59:40.774Z,20.07
2018-06-18T06:00:21.357Z,20.18
2018-06-18T06:01:02.000Z,20.1
2018-06-18T06:01:42.524Z,20.11
2018-06-18T06:02:23.080Z,20.13
2018-06-18T06:03:03.629Z,20.19
2018-06-18T06:03:44.203Z,20.14
2018-06-18T06:04:24.793Z,20.13
2018-06-18T06:05:05.373Z,20.13
2018-06-18T06:05:45.944Z,20.13
2018-06-18T06:06:26.560Z,20.13
2018-06-18T06:07:07.116Z,20.24
2018-06-18T06:07:47.668Z,20.21
2018-06-18T06:08:28.202Z,20.16
2018-06-18T06:09:08.748Z,20.19
2018-06-18T06:09:49.312Z,20.09
2018-06-18T06:10:29.871Z,20.07
2018-06-18T06:11:10.448Z,20.18
2018-06-18T06:11:51.012Z,20.13
2018-06-18T06:12:31.575Z,20.14
2018-06-18T06:13:12.178Z,20.1
2018-06-18T06:13:52.738Z,20.25
2018-06-18T06:14:33.306Z,20.16
2018-06-18T06:15:13.874Z,20.14
2018-06-18T06:15:54.407Z,20.18
2018-06-18T06:16:34.966Z,20.24
2018-06-18T06:17:15.542Z,20.25
2018-06-18T06:17:56.105Z,20.14
2018-06-18T06:18:36.686Z,20.13
2018-06-18T06:19:17.254Z,20.21
2018-06-18T06:19:57.820Z,20.14
2018-06-18T06:20:38.396Z,20.34
2018-06-18T06:21:18.965Z,20.21
2018-06-18T06:21:59.532Z,20.25
2018-06-18T06:22:40.101Z,20.19
2018-06-18T06:23:20.685Z,20.22
2018-06-18T06:24:01.264Z,20.26
2018-06-18T06:24:41.852Z,20.29
2018-06-18T06:25:22.427Z,20.41
2018-06-18T06:26:02.981Z,20.24
2018-06-18T06:26:43.560Z,20.26
2018-06-18T06:27:24.109Z,20.4
2018-06-18T06:28:04.680Z,20.41
2018-06-18T06:28:45.240Z,20.44
2018-06-18T06:29:25.790Z,20.44
2018-06-18T06:30:06.366Z,20.44
2018-06-18T06:30:46.928Z,20.41
2018-06-18T06:31:27.488Z,20.43
2018-06-18T06:32:08.068Z,20.37
2018-06-18T06:32:48.619Z,20.41
2018-06-18T06:33:29.181Z,20.39
2018-06-18T06:34:09.773Z,20.41
2018-06-18T06:34:50.321Z,20.37
2018-06-18T06:35:30.872Z,20.4
2018-06-18T06:36:11.430Z,20.4
2018-06-18T06:36:51.984Z,20.41
2018-06-18T06:37:32.648Z,20.5
2018-06-18T06:38:13.118Z,20.5
2018-06-18T06:38:53.693Z,20.44
2018-06-18T06:39:34.246Z,20.48
2018-06-18T06:40:14.801Z,20.41
2018-06-18T06:40:55.342Z,20.47
2018-06-18T06:41:35.902Z,20.55
2018-06-18T06:42:16.452Z,20.55
2018-06-18T06:42:56.994Z,20.5
2018-06-18T06:43:37.544Z,20.62
2018-06-18T06:44:18.124Z,20.63
2018-06-18T06:44:58.684Z,20.69
2018-06-18T06:45:39.248Z,20.69
2018-06-18T06:46:19.824Z,20.72
2018-06-18T06:47:00.359Z,20.81
2018-06-18T06:47:40.920Z,20.74
2018-06-18T06:48:21.490Z,20.72
2018-06-18T06:49:02.059Z,20.74
2018-06-18T06:49:42.626Z,20.74
2018-06-18T06:50:23.193Z,20.75
2018-06-18T06:51:03.748Z,20.74
2018-06-18T06:51:44.313Z,20.81
2018-06-18T06:52:24.897Z,20.8
2018-06-18T06:53:05.458Z,20.87
2018-06-18T06:53:46.022Z,20.8
2018-06-18T06:54:26.585Z,20.92
2018-06-18T06:55:07.241Z,20.88
2018-06-18T06:55:47.845Z,20.97
2018-06-18T06:56:28.416Z,20.92
2018-06-18T06:57:09.019Z,20.99
2018-06-18T06:57:49.606Z,21.02
2018-06-18T06:58:30.170Z,20.93
2018-06-18T06:59:10.721Z,20.99
2018-06-18T06:59:51.273Z,21.03
2018-06-18T07:00:31.846Z,21.14
2018-06-18T07:01:12.428Z,21.03
2018-06-18T07:01:53.013Z,21.05
2018-06-18T07:02:33.553Z,21.09
2018-06-18T07:03:14.160Z,21.15
2018-06-18T07:03:54.735Z,21.06
2018-06-18T07:04:35.277Z,21.09
2018-06-18T07:05:15.832Z,21.15
2018-06-18T07:05:56.408Z,21.17
2018-06-18T07:06:36.982Z,21.22
2018-06-18T07:07:17.558Z,21.25
2018-06-18T07:07:58.195Z,21.27
2018-06-18T07:08:38.685Z,21.39
2018-06-18T07:09:19.263Z,21.43
2018-06-18T07:09:59.863Z,21.5
2018-06-18T07:10:40.419Z,21.52
2018-06-18T07:11:20.964Z,21.61
2018-06-18T07:12:01.524Z,21.69
2018-06-18T07:12:42.061Z,21.92
2018-06-18T07:13:22.689Z,21.93
2018-06-18T07:14:03.243Z,22.07
2018-06-18T07:14:43.767Z,22.23
2018-06-18T07:15:24.354Z,22.36
2018-06-18T07:16:04.941Z,22.35
2018-06-18T07:16:45.476Z,22.47
2018-06-18T07:17:26.048Z,22.48
2018-06-18T07:18:06.674Z,22.63
2018-06-18T07:18:47.236Z,22.55
2018-06-18T07:19:27.823Z,22.66
2018-06-18T07:20:08.451Z,22.68
2018-06-18T07:20:49.000Z,22.75
2018-06-18T07:21:29.565Z,22.76
2018-06-18T07:22:10.135Z,22.88
2018-06-18T07:22:50.764Z,22.88
2018-06-18T07:23:31.350Z,22.98
2018-06-18T07:24:11.913Z,23.02
2018-06-18T07:24:52.477Z,23.02
2018-06-18T07:25:33.044Z,23.05
2018-06-18T07:26:13.605Z,23.08
2018-06-18T07:26:54.260Z,23.23
2018-06-18T07:27:34.811Z,23.21
2018-06-18T07:28:15.379Z,23.36
2018-06-18T07:28:55.948Z,23.36
2018-06-18T07:29:36.513Z,23.36
2018-06-18T07:30:17.119Z,23.41
2018-06-18T07:30:57.751Z,23.4
2018-06-18T07:31:38.210Z,23.36
2018-06-18T07:32:18.768Z,23.23
2018-06-18T07:32:59.330Z,23.23
2018-06-18T07:33:39.933Z,23.13
2018-06-18T07:34:20.495Z,23.13
2018-06-18T07:35:01.059Z,23.15
2018-06-18T07:35:41.610Z,23.12
2018-06-18T07:36:22.162Z,23.03
2018-06-18T07:37:02.754Z,22.98
2018-06-18T07:37:43.290Z,22.94
2018-06-18T07:38:23.846Z,22.91
2018-06-18T07:39:04.412Z,22.83
2018-06-18T07:39:44.978Z,22.8
2018-06-18T07:40:25.597Z,22.73
2018-06-18T07:41:06.145Z,22.73
2018-06-18T07:41:46.688Z,22.63
2018-06-18T07:42:27.244Z,22.68
2018-06-18T07:43:07.821Z,22.54
2018-06-18T07:43:48.415Z,22.53
2018-06-18T07:44:29.028Z,22.47
2018-06-18T07:45:09.565Z,22.43
2018-06-18T07:45:50.133Z,22.44
2018-06-18T07:46:30.693Z,22.38
2018-06-18T07:47:11.258Z,22.26
2018-06-18T07:47:51.835Z,22.26
2018-06-18T07:48:32.439Z,22.26
2018-06-18T07:49:13.100Z,22.2
2018-06-18T07:49:53.612Z,22.26
2018-06-18T07:50:34.221Z,22.1
2018-06-18T07:51:14.714Z,22.18
2018-06-18T07:51:55.295Z,22.13
2018-06-18T07:52:35.928Z,22.14
2018-06-18T07:53:16.563Z,22.08
2018-06-18T07:53:57.128Z,22.07
2018-06-18T07:54:37.716Z,22.02
2018-06-18T07:55:18.409Z,21.96
2018-06-18T07:55:58.990Z,21.89
2018-06-18T07:56:39.562Z,21.95
2018-06-18T07:57:20.103Z,21.92
2018-06-18T07:58:00.667Z,21.89
2018-06-18T07:58:41.223Z,21.92
2018-06-18T07:59:21.773Z,21.85
2018-06-18T08:00:02.341Z,21.93
2018-06-18T08:00:42.909Z,21.8
2018-06-18T08:01:23.472Z,21.8
2018-06-18T08:02:04.018Z,21.8
2018-06-18T08:02:44.588Z,21.8
2018-06-18T08:03:25.167Z,21.85
2018-06-18T08:04:05.718Z,21.79
2018-06-18T08:04:46.314Z,21.89
2018-06-18T08:05:26.956Z,21.72
2018-06-18T08:06:07.521Z,21.76
2018-06-18T08:06:48.113Z,21.64
2018-06-18T08:07:28.655Z,21.66
2018-06-18T08:08:09.281Z,21.66
2018-06-18T08:08:49.884Z,21.61
2018-06-18T08:09:30.364Z,21.64
2018-06-18T08:10:10.902Z,21.61
2018-06-18T08:10:51.478Z,21.72
2018-06-18T08:11:32.057Z,21.69
2018-06-18T08:12:12.599Z,21.7
2018-06-18T08:12:53.162Z,21.76
2018-06-18T08:13:33.678Z,21.69
2018-06-18T08:14:14.235Z,21.75
2018-06-18T08:14:54.782Z,21.83
2018-06-18T08:15:35.351Z,21.76
2018-06-18T08:16:15.933Z,21.79
2018-06-18T08:16:56.486Z,21.77
2018-06-18T08:17:37.081Z,21.85
2018-06-18T08:18:17.636Z,21.76
2018-06-18T08:18:58.176Z,21.76
2018-06-18T08:19:38.725Z,21.88
2018-06-18T08:20:19.341Z,21.8
2018-06-18T08:20:59.835Z,21.83
2018-06-18T08:21:40.412Z,21.91
2018-06-18T08:22:20.947Z,21.77
2018-06-18T08:23:01.526Z,21.82
2018-06-18T08:23:42.170Z,21.93
2018-06-18T08:24:22.671Z,21.83
2018-06-18T08:25:03.211Z,21.8
2018-06-18T08:25:43.787Z,21.96
2018-06-18T08:26:24.345Z,21.88
2018-06-18T08:27:04.911Z,21.83
2018-06-18T08:27:45.489Z,21.89
2018-06-18T08:28:26.061Z,21.92
2018-06-18T08:29:06.699Z,21.93
2018-06-18T08:29:47.243Z,21.96
2018-06-18T08:30:27.834Z,21.93
2018-06-18T08:31:08.428Z,21.98
2018-06-18T08:31:48.976Z,21.96
2018-06-18T08:32:29.563Z,21.89
2018-06-18T08:33:10.116Z,21.98
2018-06-18T08:33:50.641Z,21.91
2018-06-18T08:34:31.201Z,21.89
2018-06-18T08:35:11.756Z,21.88
2018-06-18T08:35:52.293Z,21.83
2018-06-18T08:36:32.856Z,21.77
2018-06-18T08:37:13.407Z,21.82
2018-06-18T08:37:53.966Z,21.8
2018-06-18T08:38:34.532Z,21.79
2018-06-18T08:39:15.062Z,21.85
2018-06-18T08:39:55.609Z,21.89
2018-06-18T08:40:36.165Z,21.93
2018-06-18T08:41:16.707Z,21.93
2018-06-18T08:41:57.341Z,21.92
2018-06-18T08:42:37.900Z,21.92
2018-06-18T08:43:18.444Z,21.98
2018-06-18T08:43:59.057Z,22.1
2018-06-18T08:44:39.651Z,22.08